createdAt,value
2022-12-11T01:42:55.474Z,152.13
2022-12-11T01:45:27.294Z,156.95
2022-12-11T01:48:10.117Z,230.95
2022-12-11T01:50:52.051Z,229.35
2022-12-11T01:53:34.794Z,279.23
2022-12-11T01:56:02.552Z,300.30
2022-12-11T01:58:32.890Z,292.25
2022-12-11T02:01:01.177Z,260.40
2022-12-11T02:03:29.212Z,262.85
2022-12-11T02:06:06.086Z,271.63
2022-12-11T02:08:34.311Z,275.02
2022-12-11T02:11:12.161Z,289.20
2022-12-11T02:13:49.644Z,228.63
2022-12-11T02:16:19.872Z,216.15
2022-12-11T02:19:10.644Z,191.50
2022-12-11T02:21:41.220Z,193.68
2022-12-11T02:24:24.267Z,187.67
2022-12-11T02:27:39.577Z,181.85
2022-12-11T02:30:08.546Z,152.88
2022-12-11T02:32:43.345Z,155.23
2022-12-11T02:35:15.534Z,165.52
2022-12-11T02:37:45.059Z,217.23
2022-12-11T02:40:14.028Z,234.20
2022-12-11T02:42:43.163Z,271.35
2022-12-11T02:45:11.558Z,222.48
2022-12-11T02:47:39.776Z,198.88
2022-12-11T02:50:13.279Z,183.10
2022-12-11T02:52:41.826Z,183.52
2022-12-11T02:55:11.002Z,164.25
2022-12-11T02:57:48.411Z,178.88
2022-12-11T03:00:17.046Z,162.30
2022-12-11T03:02:44.832Z,164.93
2022-12-11T03:05:13.050Z,174.32
2022-12-11T03:07:42.044Z,169.27
2022-12-11T03:10:10.989Z,214.30
2022-12-11T03:12:40.252Z,258.95
2022-12-11T03:15:10.763Z,262.35
2022-12-11T03:17:48.528Z,229.02
2022-12-11T03:20:16.389Z,217.77
2022-12-11T03:22:47.115Z,127.47
2022-12-11T03:25:28.755Z,148.68
2022-12-11T03:30:24.845Z,167.18
2022-12-11T03:32:59.745Z,150.52
2022-12-11T03:35:35.269Z,163.32
2022-12-11T03:38:12.281Z,162.80
2022-12-11T03:40:40.583Z,197.48
2022-12-11T03:43:08.342Z,198.73
2022-12-11T03:45:36.357Z,198.00
2022-12-11T03:48:04.226Z,174.93
2022-12-11T03:50:32.525Z,104.40
2022-12-11T03:53:00.943Z,87.53
2022-12-11T03:55:28.653Z,136.20
2022-12-11T03:57:56.352Z,159.27
2022-12-11T04:00:24.402Z,170.77
2022-12-11T04:03:13.589Z,157.88
2022-12-11T04:05:46.751Z,163.40
2022-12-11T04:08:15.201Z,161.45
2022-12-11T04:10:43.371Z,145.35
2022-12-11T04:13:11.179Z,126.35
2022-12-11T04:15:38.942Z,120.55
2022-12-11T04:18:25.878Z,119.15
2022-12-11T04:21:13.730Z,74.40
2022-12-11T04:23:59.924Z,58.63
2022-12-11T04:26:27.514Z,59.50
2022-12-11T04:28:55.266Z,72.32
2022-12-11T04:31:23.394Z,107.63
2022-12-11T04:33:51.202Z,119.38
2022-12-11T04:36:18.933Z,138.20
2022-12-11T04:38:46.625Z,151.05
2022-12-11T04:41:15.058Z,152.00
2022-12-11T04:43:45.430Z,160.50
2022-12-11T04:46:18.864Z,166.53
2022-12-11T04:48:46.762Z,176.55
2022-12-11T04:51:14.525Z,155.80
2022-12-11T04:53:42.276Z,150.57
2022-12-11T04:56:11.744Z,131.10
2022-12-11T04:58:40.236Z,136.02
2022-12-11T05:01:09.402Z,170.25
2022-12-11T05:03:37.416Z,191.82
2022-12-11T05:06:05.297Z,179.43
2022-12-11T05:08:34.902Z,147.35
2022-12-11T05:11:04.747Z,77.78
2022-12-11T05:13:33.283Z,61.47
2022-12-11T05:16:01.039Z,61.10
2022-12-11T05:18:28.792Z,68.75
2022-12-11T05:20:57.945Z,80.45
2022-12-11T05:23:26.556Z,97.25
2022-12-11T05:25:58.872Z,89.88
2022-12-11T05:28:28.342Z,113.30
2022-12-11T05:31:00.650Z,147.55
2022-12-11T05:33:28.726Z,142.13
2022-12-11T05:35:56.482Z,154.25
2022-12-11T05:38:24.410Z,165.13
2022-12-11T05:40:59.097Z,158.45
2022-12-11T05:43:27.991Z,159.77
2022-12-11T05:45:55.960Z,153.25
2022-12-11T05:48:24.580Z,176.73
2022-12-11T05:50:59.627Z,128.18
2022-12-11T05:53:27.787Z,77.43
2022-12-11T05:56:02.479Z,74.70
2022-12-11T05:58:30.470Z,64.47
2022-12-11T06:00:58.161Z,81.45
2022-12-11T06:03:25.833Z,81.63
2022-12-11T06:05:53.571Z,114.13
2022-12-11T06:08:21.351Z,128.30
2022-12-11T06:10:49.568Z,146.43
2022-12-11T06:13:17.558Z,130.60
2022-12-11T06:15:45.713Z,131.05
2022-12-11T06:18:13.657Z,78.43
2022-12-11T06:20:41.676Z,72.65
2022-12-11T06:23:09.470Z,56.83
2022-12-11T06:25:40.993Z,56.63
2022-12-11T06:28:08.899Z,57.70
2022-12-11T06:30:37.649Z,61.75
2022-12-11T06:33:07.595Z,78.38
2022-12-11T06:35:41.637Z,62.65
2022-12-11T06:38:12.440Z,60.17
2022-12-11T06:40:40.902Z,70.60
2022-12-11T06:43:08.945Z,61.67
2022-12-11T06:45:39.786Z,52.85
2022-12-11T06:48:07.746Z,57.47
2022-12-11T06:50:35.864Z,66.45
2022-12-11T06:53:03.722Z,71.45
2022-12-11T06:55:31.617Z,84.07
2022-12-11T06:57:59.598Z,80.90
2022-12-11T07:00:27.423Z,95.05
2022-12-11T07:02:56.033Z,115.35
2022-12-11T07:05:24.027Z,130.45
2022-12-11T07:07:54.332Z,129.48
2022-12-11T07:10:22.559Z,141.85
2022-12-11T07:12:52.524Z,161.32
2022-12-11T07:15:20.526Z,153.13
2022-12-11T07:17:49.261Z,102.55
2022-12-11T07:20:17.663Z,83.82
2022-12-11T07:22:46.827Z,60.35
2022-12-11T07:25:15.041Z,70.03
2022-12-11T07:27:43.333Z,62.25
2022-12-11T07:30:11.794Z,58.13
2022-12-11T07:32:39.846Z,58.17
2022-12-11T07:35:08.235Z,61.53
2022-12-11T07:37:36.420Z,67.75
2022-12-11T07:40:04.858Z,50.53
2022-12-11T07:42:33.164Z,55.40
2022-12-11T07:45:02.673Z,58.25
2022-12-11T07:47:31.647Z,54.22
2022-12-11T07:50:02.415Z,46.95
2022-12-11T07:52:30.836Z,51.55
2022-12-11T07:54:59.077Z,55.53
2022-12-11T08:00:00.524Z,58.22
2022-12-11T08:02:31.324Z,57.03
2022-12-11T08:05:03.189Z,68.97
2022-12-11T08:07:31.215Z,50.78
2022-12-11T08:09:59.234Z,44.40
2022-12-11T08:12:27.010Z,46.88
2022-12-11T08:14:54.694Z,50.72
2022-12-11T08:17:28.770Z,44.00
2022-12-11T08:20:01.621Z,48.28
2022-12-11T08:22:32.815Z,45.33
2022-12-11T08:25:05.300Z,45.95
2022-12-11T08:27:33.436Z,50.67
2022-12-11T08:30:01.472Z,39.50
2022-12-11T08:32:30.714Z,48.63
2022-12-11T08:34:58.752Z,49.40
2022-12-11T08:37:26.665Z,39.45
2022-12-11T08:39:57.334Z,38.85
2022-12-11T08:42:35.741Z,36.88
2022-12-11T08:45:04.275Z,39.28
2022-12-11T08:47:32.275Z,37.78
2022-12-11T08:50:00.134Z,32.10
2022-12-11T08:52:28.096Z,34.75
2022-12-11T08:54:58.768Z,31.92
2022-12-11T08:57:28.312Z,37.85
2022-12-11T08:59:56.366Z,38.45
2022-12-11T09:02:24.465Z,35.22
2022-12-11T09:04:52.309Z,35.00
2022-12-11T09:07:20.471Z,32.08
2022-12-11T09:09:48.461Z,31.52
2022-12-11T09:12:16.457Z,42.30
2022-12-11T09:14:59.716Z,46.33
2022-12-11T09:17:27.872Z,45.92
2022-12-11T09:19:55.521Z,33.45
2022-12-11T09:22:23.570Z,37.15
2022-12-11T09:24:54.573Z,36.85
2022-12-11T09:27:22.723Z,46.72
2022-12-11T09:29:50.614Z,44.78
2022-12-11T10:51:18.899Z,32.30
2022-12-11T10:53:54.928Z,33.15
2022-12-11T10:56:29.656Z,31.63
2022-12-11T10:58:58.521Z,29.48
2022-12-11T11:01:28.269Z,31.40
2022-12-11T11:04:04.511Z,31.00
2022-12-11T11:06:32.126Z,30.42
2022-12-11T11:09:00.827Z,25.35
2022-12-11T11:11:36.879Z,30.63
2022-12-11T11:14:15.197Z,28.80
2022-12-11T11:16:47.259Z,28.52
2022-12-11T11:19:29.963Z,29.08
2022-12-11T11:22:07.912Z,29.85
2022-12-11T11:24:41.167Z,26.90
2022-12-11T11:27:36.333Z,29.13
2022-12-11T11:30:08.430Z,26.50
2022-12-11T11:32:39.560Z,26.92
2022-12-11T11:35:13.637Z,25.08
2022-12-11T11:37:43.407Z,21.85
2022-12-11T11:40:24.592Z,26.33
2022-12-11T11:43:07.927Z,27.13
2022-12-11T11:45:46.571Z,27.70
2022-12-11T11:48:29.931Z,28.42
2022-12-11T11:50:58.255Z,29.73
2022-12-11T11:53:37.448Z,22.83
2022-12-11T11:56:17.351Z,23.15
2022-12-11T11:59:00.321Z,26.20
2022-12-11T12:01:28.214Z,24.45
2022-12-11T12:03:56.471Z,23.17
2022-12-11T12:06:29.179Z,30.48
2022-12-11T12:09:22.083Z,24.70
2022-12-11T12:12:11.172Z,24.55
2022-12-11T12:14:54.078Z,87.53
2022-12-11T12:17:38.816Z,27.05
2022-12-11T12:20:30.283Z,27.45
2022-12-11T12:23:07.814Z,28.30
2022-12-11T12:25:41.995Z,25.05
2022-12-11T12:29:03.362Z,23.50
2022-12-11T12:31:45.591Z,25.55
2022-12-11T12:34:29.691Z,27.58
2022-12-11T12:37:37.666Z,27.33
2022-12-11T12:40:30.526Z,26.15
2022-12-11T12:43:37.144Z,23.48
2022-12-11T12:46:27.121Z,29.15
2022-12-11T12:48:56.878Z,22.30
2022-12-11T12:51:26.080Z,28.90
2022-12-11T12:54:01.933Z,27.65
2022-12-11T12:56:31.062Z,26.05
2022-12-11T12:58:59.202Z,25.65
2022-12-11T13:01:29.660Z,22.88
2022-12-11T13:04:05.854Z,31.27
2022-12-11T13:06:38.168Z,22.48
2022-12-11T13:09:24.340Z,22.75
2022-12-11T13:11:55.448Z,24.95
2022-12-11T13:17:23.056Z,24.73
2022-12-11T13:19:53.331Z,30.38
2022-12-11T13:22:24.037Z,30.13
2022-12-11T13:24:54.832Z,27.98
2022-12-11T13:27:24.722Z,28.63
2022-12-11T13:30:04.882Z,26.42
2022-12-11T13:32:42.315Z,27.13
2022-12-11T13:35:16.085Z,27.13
2022-12-11T13:37:44.819Z,29.23
2022-12-11T13:40:20.404Z,28.70
2022-12-11T13:42:50.626Z,26.40
2022-12-11T13:45:39.622Z,24.10
2022-12-11T13:48:37.617Z,24.15
2022-12-11T13:51:05.989Z,22.23
2022-12-11T13:53:36.285Z,30.30
2022-12-11T13:56:07.726Z,23.13
2022-12-11T13:58:38.071Z,26.60
2022-12-11T14:01:20.946Z,31.23
2022-12-11T14:03:58.947Z,50.38
2022-12-11T14:06:27.578Z,26.40
2022-12-11T14:08:57.326Z,25.75
2022-12-11T14:11:31.239Z,27.70
2022-12-11T14:14:00.777Z,30.70
2022-12-11T14:16:37.396Z,24.63
2022-12-11T14:19:08.594Z,27.50
2022-12-11T14:21:36.870Z,27.88
2022-12-11T14:24:06.955Z,21.55
2022-12-11T14:26:38.125Z,28.73
2022-12-11T14:29:06.816Z,25.30
2022-12-11T14:31:35.388Z,24.45
2022-12-11T14:34:07.593Z,23.85
2022-12-11T14:36:35.587Z,26.42
2022-12-11T14:39:06.722Z,24.55
2022-12-11T14:42:02.949Z,21.45
2022-12-11T14:44:33.786Z,24.50
2022-12-11T14:47:06.398Z,25.30
2022-12-11T14:49:42.161Z,20.63
2022-12-11T14:52:21.118Z,22.13
2022-12-11T14:55:10.341Z,24.27
2022-12-11T14:57:37.935Z,25.02
2022-12-11T15:00:06.415Z,20.63
2022-12-11T15:02:35.646Z,19.65
2022-12-11T15:05:18.683Z,21.70
2022-12-11T15:07:56.798Z,24.77
2022-12-11T15:10:35.756Z,24.60
2022-12-11T15:13:05.577Z,27.08
2022-12-11T15:15:38.833Z,23.70
2022-12-11T15:18:14.251Z,22.30
2022-12-11T15:20:49.867Z,31.33
2022-12-11T15:23:21.661Z,26.13
2022-12-11T15:25:54.106Z,25.90
2022-12-11T15:28:40.078Z,24.48
2022-12-11T15:31:23.079Z,21.77
2022-12-11T15:33:54.234Z,26.25
2022-12-11T15:36:36.751Z,28.92
2022-12-11T15:39:05.964Z,25.63
2022-12-11T15:41:35.838Z,27.50
2022-12-11T15:44:05.240Z,28.27
2022-12-11T15:46:36.552Z,28.50
2022-12-11T15:49:10.283Z,24.98
2022-12-11T15:51:43.160Z,28.58
2022-12-11T15:54:13.171Z,26.38
2022-12-11T15:56:44.000Z,28.63
2022-12-11T15:59:21.809Z,24.00
2022-12-11T16:01:50.384Z,29.30
2022-12-11T16:04:21.136Z,29.20
2022-12-11T16:06:52.775Z,25.13
2022-12-11T16:09:26.608Z,24.73
2022-12-11T16:11:54.580Z,40.58
2022-12-11T16:14:23.264Z,39.10
2022-12-11T16:16:54.744Z,46.70
2022-12-11T16:19:22.576Z,28.27
2022-12-11T16:21:52.721Z,32.55
2022-12-11T16:24:26.920Z,27.23
2022-12-11T16:26:57.399Z,46.13
2022-12-11T16:29:31.253Z,27.52
2022-12-11T17:23:30.677Z,32.28
2022-12-11T17:25:58.471Z,37.25
2022-12-11T17:28:28.967Z,30.08
2022-12-11T17:30:56.872Z,33.17
2022-12-11T17:33:24.727Z,31.88
2022-12-11T17:35:55.298Z,28.92
2022-12-11T17:38:23.180Z,28.25
2022-12-11T17:40:51.308Z,33.22
2022-12-11T17:43:19.016Z,30.30
2022-12-11T17:45:48.915Z,28.77
2022-12-11T17:48:16.841Z,28.10
2022-12-11T17:50:45.738Z,27.00
2022-12-11T17:53:14.442Z,27.60
2022-12-11T17:55:42.966Z,26.15
2022-12-11T17:58:18.143Z,31.20
2022-12-11T18:00:47.112Z,28.75
2022-12-11T18:03:14.911Z,29.50
2022-12-11T18:05:45.822Z,38.08
2022-12-11T18:08:18.463Z,34.20
2022-12-11T18:10:46.141Z,32.42
2022-12-11T18:13:13.910Z,38.25
2022-12-11T18:15:42.708Z,29.92
2022-12-11T18:18:10.403Z,31.20
2022-12-11T18:20:38.640Z,28.85
2022-12-11T18:23:06.464Z,25.50
2022-12-11T18:25:34.265Z,32.88
2022-12-11T18:28:01.887Z,36.45
2022-12-11T18:30:29.670Z,32.03
2022-12-11T18:32:57.368Z,35.05
2022-12-11T18:35:25.664Z,35.83
2022-12-11T18:37:53.376Z,34.70
2022-12-11T18:40:21.030Z,33.65
2022-12-11T18:42:48.717Z,35.88
2022-12-11T18:45:16.368Z,46.25
2022-12-11T18:47:44.317Z,48.65
2022-12-11T18:50:14.652Z,40.35
2022-12-11T18:52:42.364Z,34.13
2022-12-11T18:55:10.340Z,36.20
2022-12-11T18:57:56.482Z,34.28
2022-12-11T19:00:24.239Z,32.80
2022-12-11T19:02:52.771Z,33.28
2022-12-11T19:05:20.625Z,31.55
2022-12-11T19:07:48.367Z,37.00
2022-12-11T19:10:16.082Z,34.00
2022-12-11T19:12:43.939Z,38.15
2022-12-11T19:15:12.279Z,36.58
2022-12-11T19:17:43.332Z,32.95
2022-12-11T19:20:40.402Z,30.45
2022-12-11T19:22:59.163Z,28.73
2022-12-11T19:25:26.760Z,34.15
2022-12-11T19:27:56.994Z,31.70
2022-12-11T19:30:24.948Z,31.52
2022-12-11T19:32:54.192Z,33.53
2022-12-11T19:35:22.476Z,31.00
2022-12-11T19:37:50.296Z,31.02
2022-12-11T19:40:18.942Z,37.55
2022-12-11T19:42:46.960Z,33.40
2022-12-11T19:45:14.759Z,35.22
2022-12-11T19:47:42.678Z,31.80
2022-12-11T19:50:10.446Z,35.63
2022-12-11T19:52:45.855Z,32.45
2022-12-11T19:55:15.267Z,33.30
2022-12-11T19:57:43.168Z,29.83
2022-12-11T20:00:11.300Z,34.75
2022-12-11T20:02:43.216Z,35.00
2022-12-11T20:05:11.509Z,34.70
2022-12-11T20:07:39.354Z,35.90
2022-12-11T20:10:07.557Z,29.70
2022-12-11T20:12:36.252Z,32.60
2022-12-11T20:15:05.319Z,36.45
2022-12-11T20:17:33.604Z,46.38
2022-12-11T20:20:01.298Z,39.10
2022-12-11T20:22:28.875Z,40.88
2022-12-11T20:24:56.915Z,38.78
2022-12-11T20:27:26.219Z,34.20
2022-12-11T20:29:53.720Z,35.33
2022-12-11T20:32:21.409Z,36.42
2022-12-11T20:34:49.061Z,33.42
2022-12-11T20:37:17.145Z,34.25
2022-12-11T20:39:45.756Z,37.38
2022-12-11T20:42:13.439Z,45.72
2022-12-11T20:44:45.688Z,47.88
2022-12-11T20:47:19.898Z,41.65
2022-12-11T20:49:48.171Z,36.80
2022-12-11T20:52:17.460Z,31.85
2022-12-11T20:54:45.262Z,37.75
2022-12-11T20:57:16.458Z,35.92
2022-12-11T20:59:45.349Z,30.88
2022-12-11T21:02:13.628Z,31.83
2022-12-11T21:04:42.403Z,32.22
2022-12-11T21:07:10.467Z,30.75
2022-12-11T21:09:38.581Z,26.65
2022-12-11T21:12:06.581Z,32.85
2022-12-11T21:14:34.355Z,33.28
2022-12-11T21:17:02.112Z,27.02
2022-12-11T21:19:30.102Z,26.92
2022-12-11T21:21:58.518Z,33.28
2022-12-11T21:24:27.908Z,23.42
2022-12-11T21:26:56.355Z,30.58
2022-12-11T21:29:27.010Z,30.67
2022-12-11T21:31:55.691Z,32.25
2022-12-11T21:34:25.537Z,31.88
2022-12-11T21:36:57.168Z,28.15
2022-12-11T21:39:25.791Z,33.50
2022-12-11T21:41:53.439Z,31.83
2022-12-11T21:47:09.756Z,28.30
2022-12-11T21:49:37.743Z,32.80
2022-12-11T21:52:05.524Z,30.10
2022-12-11T21:54:51.976Z,32.75
2022-12-11T21:57:26.862Z,29.05
2022-12-11T21:59:54.559Z,30.83
2022-12-11T22:02:22.260Z,29.40
2022-12-11T22:04:49.862Z,31.13
2022-12-11T22:07:17.482Z,29.00
2022-12-11T22:09:45.127Z,25.27
2022-12-11T22:12:39.280Z,27.42
2022-12-11T22:15:07.931Z,29.38
2022-12-11T22:17:37.296Z,30.08
2022-12-11T22:20:06.009Z,29.65
2022-12-11T22:22:33.742Z,31.77
2022-12-11T22:25:01.364Z,24.73
2022-12-11T22:27:29.241Z,25.30
2022-12-11T22:29:56.921Z,29.48
2022-12-11T22:32:24.769Z,30.50
2022-12-11T22:35:11.232Z,31.98
2022-12-11T22:37:39.633Z,25.77
2022-12-11T22:40:07.989Z,27.67
2022-12-11T22:42:35.906Z,28.00
2022-12-11T22:45:03.540Z,24.95
2022-12-11T22:47:31.167Z,24.60
2022-12-11T22:49:58.739Z,23.15
2022-12-11T22:52:26.528Z,22.58
2022-12-11T22:54:54.251Z,29.45
2022-12-11T22:57:21.851Z,22.90
2022-12-11T22:59:53.375Z,24.58
2022-12-11T23:02:21.199Z,23.60
2022-12-11T23:04:48.805Z,24.17
2022-12-11T23:07:16.690Z,23.30
2022-12-11T23:09:44.362Z,21.67
2022-12-11T23:12:11.947Z,25.08
2022-12-11T23:14:39.599Z,26.23
2022-12-11T23:17:07.262Z,21.10
2022-12-11T23:19:34.865Z,20.80
2022-12-11T23:22:03.031Z,23.00
2022-12-11T23:24:30.866Z,20.23
2022-12-11T23:26:58.428Z,18.75
2022-12-11T23:29:26.103Z,20.88
2022-12-11T23:31:53.714Z,22.13
2022-12-11T23:34:22.971Z,19.20
2022-12-11T23:36:50.831Z,24.73
2022-12-11T23:39:18.400Z,18.70
2022-12-11T23:41:46.048Z,17.48
2022-12-11T23:44:14.007Z,21.02
2022-12-11T23:46:42.746Z,22.75
2022-12-11T23:49:10.268Z,21.80
2022-12-11T23:51:37.888Z,23.52
2022-12-11T23:54:23.961Z,24.60
2022-12-11T23:56:51.509Z,23.15
